Fallon, NV (89406)

11:08 PM PDT on August 23, 2016 (GMT -0700)
East Fallon | | Change Station

Elev 3980 ft 39.48 °N, 118.77 °W | Updated 12 minutes ago

Clear
Clear
74.3 °F
Feels Like 76 °F
N
1.7
Wind Variable Wind from NE

Today
High -- | Low -- °F
--% Chance of Precip.
Yesterday
High -- | Low -- °F
Precip. -- in
Pressure 30.04 in
Visibility 9.0 miles
Clouds Clear
Heat Index 76 °F
Dew Point 29 °F
Humidity 19%
Rainfall 0.00 in
Snow Depth Not available.
6:15 AM 7:38 PM
Waning Gibbous, 60% visible
METAR KNFL 240556Z 27008KT 9SM CLR 24/M02 A3013 RMK AO2 SLP170 T02441022 10339 20244 51018 $
Pressure 30.04 in
Visibility 9.0 miles
Clouds Clear
Heat Index 76 °F
Dew Point 29 °F
Humidity 19%
Rainfall 0.00 in
Snow Depth Not available.
6:15 AM 7:38 PM
Waning Gibbous, 60% visible
METAR KNFL 240556Z 27008KT 9SM CLR 24/M02 A3013 RMK AO2 SLP170 T02441022 10339 20244 51018 $

10-Day Weather Forecast

Almanac

Astronomy

Aug. 23, 2016 Rise Set
Actual Time
Civil Twilight
Nautical Twilight
Astronomical Twilight
Moon
Length of Visible Light
Length of Day
Tomorrow will be .
, % of the Moon is Illuminated

Today's Extremes

State Highs State Lows

Community

WunderPhotos

Upload Photos

1,934,554 photos uploaded!

WunderBlog® & News

Nearby

Air Quality

  Air Quality AQ Index Pollutant
Not available.

Snow Depth

Station Depth Elevation

Earthquake Activity

City Distance Mag. Time & Date
Minimum magnitude displayed is 2.5.

Coastal Water Temperatures

Place Temperature

Stations

Nearby Weather Stations

Station Location Temp. Windchill Dew Point Humidity Wind Precip. Elev Updated Type
                   

Watches & Warnings

There are currently no watches in effect.